»·PEaware :: SWA398 KSFO-KLAS

SWA398 :: KSFO-KLAS

FLIGHT INFORMATION

Flight Status: Arrived
Operator:
Southwest Airlines
More flights by this operator :: More flights under this callsign
Pilot: Dave P. (45)
Aircraft: BOEING 737-800
(B738)
More flights by this aircraft type
Origin: KSFO San Francisco Intl
United States
Destination: KLAS McCarran Intl
United States
More flights between these airports :: More routes between these airports
Route: SSTIK4 NTELL Q162 LIDAT BTY SUNST4
File this flight plan on PilotEdge
Remarks:
Altitude:
(Current/Filed)
33,000ft
Speed:
(Current/Filed)
446kts
Departed: 10-Jan-21 09:33 AM
Arrived: 10-Jan-21 10:42 AM
Distance/Time
Traveled:
359nm/1:09
Distance/Time
To Go:
Arrived

Flight Plot

Page will automatically refresh every two minutes.

Flight plan parsing failed; only flown route is shown


Map Options




Map Legend


Flown Route
Filed Route
Departure Airport
Arrival Airport
Navaid (VOR, NDB)
Fix

Horizontal Profiles

Position Reports

Time Latitude Longitude Heading Altitude Ground
Speed
10-Jan-21 09:17 37.614032 -122.384664 255 21ft 0kts
10-Jan-21 09:18 37.614032 -122.384664 255 21ft 0kts
10-Jan-21 09:18 37.614032 -122.384664 255 21ft 0kts
10-Jan-21 09:20 37.614032 -122.384664 255 21ft 0kts
10-Jan-21 09:21 37.614032 -122.384664 255 21ft 0kts
10-Jan-21 09:21 37.614032 -122.384664 255 21ft 0kts
10-Jan-21 09:22 37.614187 -122.383921 255 21ft 2kts
10-Jan-21 09:24 37.614199 -122.383864 255 21ft 0kts
10-Jan-21 09:24 37.614199 -122.383864 255 21ft 0kts
10-Jan-21 09:25 37.614199 -122.383865 255 21ft 0kts
10-Jan-21 09:26 37.613702 -122.382792 117 21ft 11kts
10-Jan-21 09:27 37.613600 -122.382546 117 21ft 0kts
10-Jan-21 09:28 37.613110 -122.382045 185 21ft 13kts
10-Jan-21 09:29 37.609508 -122.384597 207 21ft 14kts
10-Jan-21 09:30 37.608491 -122.383830 116 21ft 0kts
10-Jan-21 09:31 37.608722 -122.382372 28 21ft 9kts
10-Jan-21 09:32 37.632133 -122.366829 27 575ft 163kts
10-Jan-21 09:33 37.681878 -122.362002 333 2505ft 230kts
10-Jan-21 09:34 37.685802 -122.434555 215 5424ft 270kts
10-Jan-21 09:35 37.609350 -122.455915 190 8578ft 290kts
10-Jan-21 09:36 37.527472 -122.468699 191 10003ft 297kts
10-Jan-21 09:37 37.454949 -122.426784 116 10649ft 344kts
10-Jan-21 09:38 37.406859 -122.310903 111 12464ft 393kts
10-Jan-21 09:39 37.378424 -122.176237 102 15359ft 406kts
10-Jan-21 09:40 37.350591 -122.035557 102 18083ft 420kts
10-Jan-21 09:41 37.321507 -121.890724 102 19359ft 430kts
10-Jan-21 09:42 37.292543 -121.744913 102 19792ft 436kts
10-Jan-21 09:43 37.262317 -121.596042 103 22182ft 446kts
10-Jan-21 09:44 37.230904 -121.442807 103 24185ft 458kts
10-Jan-21 09:45 37.198494 -121.285893 103 25896ft 472kts
10-Jan-21 09:46 37.164816 -121.124041 104 27414ft 485kts
10-Jan-21 09:47 37.130070 -120.958307 105 28769ft 497kts
10-Jan-21 09:48 37.094234 -120.788650 105 30004ft 507kts
10-Jan-21 09:49 37.058016 -120.618524 106 31480ft 508kts
10-Jan-21 09:50 37.021287 -120.447295 107 32825ft 509kts
10-Jan-21 09:51 36.984222 -120.275732 107 33414ft 511kts
10-Jan-21 09:52 36.947315 -120.105088 108 33419ft 507kts
10-Jan-21 09:53 36.911452 -119.934537 99 33403ft 509kts
10-Jan-21 09:54 36.939233 -119.763900 64 33406ft 506kts
10-Jan-21 09:55 36.994984 -119.602039 63 33394ft 506kts
10-Jan-21 09:56 37.050643 -119.440547 63 33392ft 505kts
10-Jan-21 09:57 37.104449 -119.277347 66 33389ft 506kts
10-Jan-21 09:58 37.155217 -119.113205 66 33387ft 505kts
10-Jan-21 09:59 37.206380 -118.949523 66 33384ft 504kts
10-Jan-21 10:00 37.256720 -118.785148 66 33380ft 504kts
10-Jan-21 10:01 37.289654 -118.613653 82 33374ft 507kts
10-Jan-21 10:02 37.307734 -118.438626 81 33370ft 506kts
10-Jan-21 10:03 37.326673 -118.263579 81 33370ft 505kts
10-Jan-21 10:04 37.346053 -118.088607 81 33371ft 505kts
10-Jan-21 10:05 37.364731 -117.913546 81 33380ft 502kts
10-Jan-21 10:06 37.382923 -117.740319 81 33380ft 501kts
10-Jan-21 10:07 37.401284 -117.566260 81 33381ft 500kts
10-Jan-21 10:08 37.418713 -117.392931 82 33382ft 499kts
10-Jan-21 10:09 37.378149 -117.233726 138 33385ft 486kts
10-Jan-21 10:10 37.268745 -117.139734 152 33385ft 477kts
10-Jan-21 10:11 37.157594 -117.047528 151 33388ft 479kts
10-Jan-21 10:12 37.047164 -116.953983 150 33391ft 480kts
10-Jan-21 10:13 36.936213 -116.860841 150 31928ft 476kts
10-Jan-21 10:14 36.827564 -116.769807 148 29922ft 464kts
10-Jan-21 10:15 36.736305 -116.657149 133 28016ft 459kts
10-Jan-21 10:16 36.654002 -116.538673 132 26130ft 445kts
10-Jan-21 10:17 36.573563 -116.424224 132 24271ft 433kts
10-Jan-21 10:18 36.494859 -116.313159 131 22431ft 420kts
10-Jan-21 10:19 36.418603 -116.205828 131 20632ft 410kts
10-Jan-21 10:20 36.343914 -116.100395 131 18830ft 401kts
10-Jan-21 10:21 36.270537 -115.997865 130 17143ft 391kts
10-Jan-21 10:22 36.203245 -115.899394 120 16111ft 343kts
10-Jan-21 10:23 36.166509 -115.794234 108 15053ft 313kts
10-Jan-21 10:24 36.134849 -115.695615 108 13982ft 305kts
10-Jan-21 10:25 36.104664 -115.601733 107 12938ft 275kts
10-Jan-21 10:26 36.076499 -115.514765 107 12342ft 272kts
10-Jan-21 10:27 36.048002 -115.427310 108 11509ft 268kts
10-Jan-21 10:28 36.028186 -115.341554 91 10670ft 256kts
10-Jan-21 10:29 36.022410 -115.255368 93 9646ft 245kts
10-Jan-21 10:30 36.016567 -115.173003 94 8810ft 238kts
10-Jan-21 10:31 36.011061 -115.092260 94 8138ft 234kts
10-Jan-21 10:32 36.006372 -115.012848 94 7661ft 228kts
10-Jan-21 10:33 36.001642 -114.934489 94 6529ft 226kts
10-Jan-21 10:34 36.000219 -114.863090 65 5704ft 202kts
10-Jan-21 10:35 36.049638 -114.838152 3 4448ft 196kts
10-Jan-21 10:36 36.074650 -114.878104 270 4334ft 179kts
10-Jan-21 10:37 36.073875 -114.939305 270 4334ft 178kts
10-Jan-21 10:38 36.073779 -115.000689 270 4141ft 174kts
10-Jan-21 10:39 36.073729 -115.058776 269 3274ft 161kts
10-Jan-21 10:40 36.073684 -115.112655 269 2418ft 152kts
10-Jan-21 10:41 36.074334 -115.144981 301 2189ft 15kts
10-Jan-21 10:42 36.077290 -115.146572 359 2189ft 8kts
10-Jan-21 10:43 36.077677 -115.146765 323 2189ft 9kts
10-Jan-21 10:45 36.079559 -115.146706 27 2189ft 0kts
10-Jan-21 10:46 36.079559 -115.146706 27 2189ft 0kts
10-Jan-21 10:47 36.079559 -115.146706 27 2189ft 0kts
10-Jan-21 10:48 36.079559 -115.146706 27 2189ft 0kts
10-Jan-21 10:49 36.079559 -115.146706 27 2189ft 0kts
10-Jan-21 10:50 36.079559 -115.146706 27 2189ft 0kts
10-Jan-21 10:51 36.079559 -115.146706 27 2189ft 0kts

Navigation Log

Ident Type
Flight plan parsing failed, navigation log unavailable